sensor_id;sensor_type;location;lat;lon;timestamp;temperature;humidity
18733;DHT22;9495;51.210;2.934;2023-07-24T00:00:19;21.30;99.90
18733;DHT22;9495;51.210;2.934;2023-07-24T00:02:48;21.40;99.90
18733;DHT22;9495;51.210;2.934;2023-07-24T00:05:16;21.70;99.90
18733;DHT22;9495;51.210;2.934;2023-07-24T00:07:45;21.80;99.90
18733;DHT22;9495;51.210;2.934;2023-07-24T00:10:15;21.90;99.90
18733;DHT22;9495;51.210;2.934;2023-07-24T00:12:43;21.60;99.90
18733;DHT22;9495;51.210;2.934;2023-07-24T00:15:12;21.90;99.90
18733;DHT22;9495;51.210;2.934;2023-07-24T00:17:41;21.40;99.90
18733;DHT22;9495;51.210;2.934;2023-07-24T00:20:09;21.50;99.90
18733;DHT22;9495;51.210;2.934;2023-07-24T00:22:38;21.40;99.90
18733;DHT22;9495;51.210;2.934;2023-07-24T00:25:08;21.20;99.90
18733;DHT22;9495;51.210;2.934;2023-07-24T00:27:38;21.10;99.90
18733;DHT22;9495;51.210;2.934;2023-07-24T00:30:07;20.70;99.90
18733;DHT22;9495;51.210;2.934;2023-07-24T00:32:36;20.90;99.90
18733;DHT22;9495;51.210;2.934;2023-07-24T00:35:06;20.70;99.90
18733;DHT22;9495;51.210;2.934;2023-07-24T00:37:34;20.90;99.90
18733;DHT22;9495;51.210;2.934;2023-07-24T00:40:03;21.30;99.90
18733;DHT22;9495;51.210;2.934;2023-07-24T00:42:32;21.30;99.90
18733;DHT22;9495;51.210;2.934;2023-07-24T00:45:01;21.80;99.90
18733;DHT22;9495;51.210;2.934;2023-07-24T00:47:31;21.90;99.90
18733;DHT22;9495;51.210;2.934;2023-07-24T00:50:00;21.50;99.90
18733;DHT22;9495;51.210;2.934;2023-07-24T00:52:29;21.50;99.90
18733;DHT22;9495;51.210;2.934;2023-07-24T00:54:57;21.30;99.90
18733;DHT22;9495;51.210;2.934;2023-07-24T00:57:26;21.20;99.90
18733;DHT22;9495;51.210;2.934;2023-07-24T00:59:54;21.00;99.90
18733;DHT22;9495;51.210;2.934;2023-07-24T01:02:25;21.10;99.90
18733;DHT22;9495;51.210;2.934;2023-07-24T01:04:54;21.00;99.90
18733;DHT22;9495;51.210;2.934;2023-07-24T01:07:23;20.90;99.90
18733;DHT22;9495;51.210;2.934;2023-07-24T01:09:51;21.00;99.90
18733;DHT22;9495;51.210;2.934;2023-07-24T01:12:24;20.60;99.90
18733;DHT22;9495;51.210;2.934;2023-07-24T01:15:03;21.00;99.90
18733;DHT22;9495;51.210;2.934;2023-07-24T01:17:39;20.90;99.90
18733;DHT22;9495;51.210;2.934;2023-07-24T01:20:12;20.70;99.90
18733;DHT22;9495;51.210;2.934;2023-07-24T01:22:53;20.70;99.90
18733;DHT22;9495;51.210;2.934;2023-07-24T01:25:31;20.50;99.90
18733;DHT22;9495;51.210;2.934;2023-07-24T01:28:07;20.20;99.90
18733;DHT22;9495;51.210;2.934;2023-07-24T01:30:36;20.40;99.90
18733;DHT22;9495;51.210;2.934;2023-07-24T01:33:05;20.50;99.90
18733;DHT22;9495;51.210;2.934;2023-07-24T01:35:33;21.00;99.90
18733;DHT22;9495;51.210;2.934;2023-07-24T01:38:03;21.20;99.90
18733;DHT22;9495;51.210;2.934;2023-07-24T01:40:32;21.30;99.90
18733;DHT22;9495;51.210;2.934;2023-07-24T01:43:01;21.40;99.90
18733;DHT22;9495;51.210;2.934;2023-07-24T01:45:31;21.60;99.90
18733;DHT22;9495;51.210;2.934;2023-07-24T01:48:00;21.00;99.90
18733;DHT22;9495;51.210;2.934;2023-07-24T01:50:28;20.90;99.90
18733;DHT22;9495;51.210;2.934;2023-07-24T01:52:57;21.40;99.90
18733;DHT22;9495;51.210;2.934;2023-07-24T01:55:25;21.30;99.90
18733;DHT22;9495;51.210;2.934;2023-07-24T01:57:54;21.20;99.90
18733;DHT22;9495;51.210;2.934;2023-07-24T02:00:22;21.40;99.90
18733;DHT22;9495;51.210;2.934;2023-07-24T02:02:52;21.30;99.90
18733;DHT22;9495;51.210;2.934;2023-07-24T02:05:22;21.00;99.90
18733;DHT22;9495;51.210;2.934;2023-07-24T02:07:50;21.10;99.90
18733;DHT22;9495;51.210;2.934;2023-07-24T02:10:19;21.10;99.90
18733;DHT22;9495;51.210;2.934;2023-07-24T02:12:47;21.00;99.90
18733;DHT22;9495;51.210;2.934;2023-07-24T02:15:16;21.10;99.90
18733;DHT22;9495;51.210;2.934;2023-07-24T02:17:44;21.10;99.90
18733;DHT22;9495;51.210;2.934;2023-07-24T02:20:14;21.10;99.90
18733;DHT22;9495;51.210;2.934;2023-07-24T02:22:42;21.00;99.90
18733;DHT22;9495;51.210;2.934;2023-07-24T02:25:11;20.80;99.90
18733;DHT22;9495;51.210;2.934;2023-07-24T02:27:40;20.60;99.90
18733;DHT22;9495;51.210;2.934;2023-07-24T02:30:09;20.80;99.90
18733;DHT22;9495;51.210;2.934;2023-07-24T02:32:37;20.50;99.90
18733;DHT22;9495;51.210;2.934;2023-07-24T02:35:06;20.80;99.90
18733;DHT22;9495;51.210;2.934;2023-07-24T02:37:36;20.70;99.90
18733;DHT22;9495;51.210;2.934;2023-07-24T02:40:06;21.00;99.90
18733;DHT22;9495;51.210;2.934;2023-07-24T02:42:34;21.00;99.90
18733;DHT22;9495;51.210;2.934;2023-07-24T02:45:03;20.50;99.90
18733;DHT22;9495;51.210;2.934;2023-07-24T02:47:32;20.30;99.90
18733;DHT22;9495;51.210;2.934;2023-07-24T02:50:01;20.10;99.90
18733;DHT22;9495;51.210;2.934;2023-07-24T02:52:29;20.10;99.90
18733;DHT22;9495;51.210;2.934;2023-07-24T02:54:59;20.00;99.90
18733;DHT22;9495;51.210;2.934;2023-07-24T02:57:28;20.30;99.90
18733;DHT22;9495;51.210;2.934;2023-07-24T02:59:56;20.30;99.90
18733;DHT22;9495;51.210;2.934;2023-07-24T03:02:25;20.20;99.90
18733;DHT22;9495;51.210;2.934;2023-07-24T03:04:54;20.20;99.90
18733;DHT22;9495;51.210;2.934;2023-07-24T03:07:22;20.50;99.90
18733;DHT22;9495;51.210;2.934;2023-07-24T03:09:51;20.20;99.90
18733;DHT22;9495;51.210;2.934;2023-07-24T03:12:21;20.30;99.90
18733;DHT22;9495;51.210;2.934;2023-07-24T03:14:49;20.20;99.90
18733;DHT22;9495;51.210;2.934;2023-07-24T03:17:18;20.00;99.90
18733;DHT22;9495;51.210;2.934;2023-07-24T03:19:48;20.00;99.90
18733;DHT22;9495;51.210;2.934;2023-07-24T03:22:17;19.90;99.90
18733;DHT22;9495;51.210;2.934;2023-07-24T03:24:46;19.80;99.90
18733;DHT22;9495;51.210;2.934;2023-07-24T03:27:14;20.30;99.90
18733;DHT22;9495;51.210;2.934;2023-07-24T03:29:44;20.60;99.90
18733;DHT22;9495;51.210;2.934;2023-07-24T03:32:12;20.50;99.90
18733;DHT22;9495;51.210;2.934;2023-07-24T03:34:41;20.50;99.90
18733;DHT22;9495;51.210;2.934;2023-07-24T03:37:10;20.70;99.90
18733;DHT22;9495;51.210;2.934;2023-07-24T03:39:38;20.50;99.90
18733;DHT22;9495;51.210;2.934;2023-07-24T03:42:09;20.70;99.90
18733;DHT22;9495;51.210;2.934;2023-07-24T03:44:40;20.40;99.90
18733;DHT22;9495;51.210;2.934;2023-07-24T03:47:09;20.60;99.90
18733;DHT22;9495;51.210;2.934;2023-07-24T03:49:38;20.60;99.90
18733;DHT22;9495;51.210;2.934;2023-07-24T03:52:06;20.40;99.90
18733;DHT22;9495;51.210;2.934;2023-07-24T03:54:35;20.50;99.90
18733;DHT22;9495;51.210;2.934;2023-07-24T03:57:04;20.40;99.90
18733;DHT22;9495;51.210;2.934;2023-07-24T03:59:33;20.20;99.90
18733;DHT22;9495;51.210;2.934;2023-07-24T04:02:01;20.20;99.90
18733;DHT22;9495;51.210;2.934;2023-07-24T04:04:31;19.90;99.90
18733;DHT22;9495;51.210;2.934;2023-07-24T04:07:00;19.70;99.90
18733;DHT22;9495;51.210;2.934;2023-07-24T04:09:29;19.80;99.90
18733;DHT22;9495;51.210;2.934;2023-07-24T04:11:58;19.90;99.90
18733;DHT22;9495;51.210;2.934;2023-07-24T04:14:28;19.70;99.90
18733;DHT22;9495;51.210;2.934;2023-07-24T04:16:56;20.00;99.90
18733;DHT22;9495;51.210;2.934;2023-07-24T04:19:25;19.90;99.90
18733;DHT22;9495;51.210;2.934;2023-07-24T04:21:55;20.00;99.90
18733;DHT22;9495;51.210;2.934;2023-07-24T04:24:23;20.10;99.90
18733;DHT22;9495;51.210;2.934;2023-07-24T04:26:52;20.00;99.90
18733;DHT22;9495;51.210;2.934;2023-07-24T04:29:20;19.70;99.90
18733;DHT22;9495;51.210;2.934;2023-07-24T04:31:51;19.40;99.90
18733;DHT22;9495;51.210;2.934;2023-07-24T04:34:19;19.40;99.90
18733;DHT22;9495;51.210;2.934;2023-07-24T04:36:47;19.20;99.90
18733;DHT22;9495;51.210;2.934;2023-07-24T04:39:17;19.10;99.90
18733;DHT22;9495;51.210;2.934;2023-07-24T04:41:46;19.00;99.90
18733;DHT22;9495;51.210;2.934;2023-07-24T04:44:14;19.20;99.90
18733;DHT22;9495;51.210;2.934;2023-07-24T04:46:42;19.00;99.90
18733;DHT22;9495;51.210;2.934;2023-07-24T04:49:11;19.10;99.90
18733;DHT22;9495;51.210;2.934;2023-07-24T04:51:39;19.10;99.90
18733;DHT22;9495;51.210;2.934;2023-07-24T04:54:08;18.80;99.90
18733;DHT22;9495;51.210;2.934;2023-07-24T04:56:38;18.80;99.90
18733;DHT22;9495;51.210;2.934;2023-07-24T04:59:07;18.90;99.90
18733;DHT22;9495;51.210;2.934;2023-07-24T05:01:35;18.90;99.90
18733;DHT22;9495;51.210;2.934;2023-07-24T05:04:04;18.80;99.90
18733;DHT22;9495;51.210;2.934;2023-07-24T05:06:33;18.90;99.90
18733;DHT22;9495;51.210;2.934;2023-07-24T05:09:04;19.20;99.90
18733;DHT22;9495;51.210;2.934;2023-07-24T05:11:33;19.50;99.90
18733;DHT22;9495;51.210;2.934;2023-07-24T05:14:02;19.30;99.90
18733;DHT22;9495;51.210;2.934;2023-07-24T05:16:31;19.40;99.90
18733;DHT22;9495;51.210;2.934;2023-07-24T05:19:00;19.20;99.90
18733;DHT22;9495;51.210;2.934;2023-07-24T05:21:29;19.20;99.90
18733;DHT22;9495;51.210;2.934;2023-07-24T05:23:57;19.20;99.90
18733;DHT22;9495;51.210;2.934;2023-07-24T05:26:26;19.30;99.90
18733;DHT22;9495;51.210;2.934;2023-07-24T05:28:55;19.60;99.90
18733;DHT22;9495;51.210;2.934;2023-07-24T05:31:25;19.70;99.90
18733;DHT22;9495;51.210;2.934;2023-07-24T05:33:53;20.00;99.90
18733;DHT22;9495;51.210;2.934;2023-07-24T05:36:22;20.50;99.90
18733;DHT22;9495;51.210;2.934;2023-07-24T05:38:52;20.30;99.90
18733;DHT22;9495;51.210;2.934;2023-07-24T05:41:20;20.50;99.90
18733;DHT22;9495;51.210;2.934;2023-07-24T05:43:49;20.30;99.90
18733;DHT22;9495;51.210;2.934;2023-07-24T05:46:18;20.30;99.90
18733;DHT22;9495;51.210;2.934;2023-07-24T05:48:48;20.00;99.90
18733;DHT22;9495;51.210;2.934;2023-07-24T05:51:17;20.20;99.90
18733;DHT22;9495;51.210;2.934;2023-07-24T05:53:45;20.00;99.90
18733;DHT22;9495;51.210;2.934;2023-07-24T05:56:14;20.10;99.90
18733;DHT22;9495;51.210;2.934;2023-07-24T05:58:42;20.20;99.90
18733;DHT22;9495;51.210;2.934;2023-07-24T06:01:11;20.50;99.90
18733;DHT22;9495;51.210;2.934;2023-07-24T06:03:39;20.60;99.90
18733;DHT22;9495;51.210;2.934;2023-07-24T06:06:09;20.60;99.90
18733;DHT22;9495;51.210;2.934;2023-07-24T06:08:37;20.50;99.90
18733;DHT22;9495;51.210;2.934;2023-07-24T06:11:06;20.80;99.90
18733;DHT22;9495;51.210;2.934;2023-07-24T06:13:34;20.30;99.90
18733;DHT22;9495;51.210;2.934;2023-07-24T06:16:03;20.20;99.90
18733;DHT22;9495;51.210;2.934;2023-07-24T06:18:34;20.40;99.90
18733;DHT22;9495;51.210;2.934;2023-07-24T06:21:03;20.50;99.90
18733;DHT22;9495;51.210;2.934;2023-07-24T06:23:33;20.20;99.90
18733;DHT22;9495;51.210;2.934;2023-07-24T06:26:01;20.40;99.90
18733;DHT22;9495;51.210;2.934;2023-07-24T06:28:30;20.30;99.90
18733;DHT22;9495;51.210;2.934;2023-07-24T06:30:59;20.60;99.90
18733;DHT22;9495;51.210;2.934;2023-07-24T06:33:28;20.60;99.90
18733;DHT22;9495;51.210;2.934;2023-07-24T06:35:56;20.80;99.90
18733;DHT22;9495;51.210;2.934;2023-07-24T06:38:25;20.60;99.90
18733;DHT22;9495;51.210;2.934;2023-07-24T06:40:54;20.80;99.90
18733;DHT22;9495;51.210;2.934;2023-07-24T06:43:23;20.90;99.90
18733;DHT22;9495;51.210;2.934;2023-07-24T06:45:52;20.80;99.90
18733;DHT22;9495;51.210;2.934;2023-07-24T06:48:20;20.90;99.90
18733;DHT22;9495;51.210;2.934;2023-07-24T06:50:48;21.20;99.90
18733;DHT22;9495;51.210;2.934;2023-07-24T06:53:17;20.90;99.90
18733;DHT22;9495;51.210;2.934;2023-07-24T06:55:46;21.20;99.90
18733;DHT22;9495;51.210;2.934;2023-07-24T06:58:15;21.30;99.90
18733;DHT22;9495;51.210;2.934;2023-07-24T07:00:44;21.20;99.90
18733;DHT22;9495;51.210;2.934;2023-07-24T07:03:12;21.10;99.90
18733;DHT22;9495;51.210;2.934;2023-07-24T07:05:41;21.20;99.90
18733;DHT22;9495;51.210;2.934;2023-07-24T07:08:09;21.30;99.90
18733;DHT22;9495;51.210;2.934;2023-07-24T07:10:38;21.10;99.90
18733;DHT22;9495;51.210;2.934;2023-07-24T07:13:07;21.00;99.90
18733;DHT22;9495;51.210;2.934;2023-07-24T07:15:37;20.60;99.90
18733;DHT22;9495;51.210;2.934;2023-07-24T07:18:05;21.10;99.90
18733;DHT22;9495;51.210;2.934;2023-07-24T07:20:34;21.60;99.90
18733;DHT22;9495;51.210;2.934;2023-07-24T07:23:02;21.70;99.90
18733;DHT22;9495;51.210;2.934;2023-07-24T07:25:31;21.60;99.90
18733;DHT22;9495;51.210;2.934;2023-07-24T07:27:59;21.60;99.90
18733;DHT22;9495;51.210;2.934;2023-07-24T07:30:28;21.90;99.90
18733;DHT22;9495;51.210;2.934;2023-07-24T07:32:57;22.00;99.90
18733;DHT22;9495;51.210;2.934;2023-07-24T07:35:26;22.20;99.90
18733;DHT22;9495;51.210;2.934;2023-07-24T07:37:55;22.30;99.90
18733;DHT22;9495;51.210;2.934;2023-07-24T07:40:23;22.20;99.90
18733;DHT22;9495;51.210;2.934;2023-07-24T07:42:54;22.20;99.90
18733;DHT22;9495;51.210;2.934;2023-07-24T07:45:23;22.40;99.90
18733;DHT22;9495;51.210;2.934;2023-07-24T07:47:51;22.10;99.90
18733;DHT22;9495;51.210;2.934;2023-07-24T07:50:22;22.30;99.90
18733;DHT22;9495;51.210;2.934;2023-07-24T07:52:51;22.10;99.90
18733;DHT22;9495;51.210;2.934;2023-07-24T07:55:20;22.40;99.90
18733;DHT22;9495;51.210;2.934;2023-07-24T07:57:48;22.50;99.90
18733;DHT22;9495;51.210;2.934;2023-07-24T08:00:17;22.50;99.90
18733;DHT22;9495;51.210;2.934;2023-07-24T08:02:45;22.40;99.90
18733;DHT22;9495;51.210;2.934;2023-07-24T08:05:14;22.50;99.90
18733;DHT22;9495;51.210;2.934;2023-07-24T08:07:48;22.60;99.90
18733;DHT22;9495;51.210;2.934;2023-07-24T08:10:17;22.50;99.90
18733;DHT22;9495;51.210;2.934;2023-07-24T08:12:46;22.40;99.90
18733;DHT22;9495;51.210;2.934;2023-07-24T08:15:14;22.50;99.90
18733;DHT22;9495;51.210;2.934;2023-07-24T08:17:43;22.50;99.90
18733;DHT22;9495;51.210;2.934;2023-07-24T08:20:12;22.50;99.90
18733;DHT22;9495;51.210;2.934;2023-07-24T08:22:40;22.10;99.90
18733;DHT22;9495;51.210;2.934;2023-07-24T08:25:10;21.80;99.90
18733;DHT22;9495;51.210;2.934;2023-07-24T08:27:39;22.30;99.90
18733;DHT22;9495;51.210;2.934;2023-07-24T08:30:26;22.60;99.90
18733;DHT22;9495;51.210;2.934;2023-07-24T08:32:55;22.70;99.90
18733;DHT22;9495;51.210;2.934;2023-07-24T08:35:25;22.70;99.90
18733;DHT22;9495;51.210;2.934;2023-07-24T08:37:53;22.60;99.90
18733;DHT22;9495;51.210;2.934;2023-07-24T08:40:23;22.70;99.90
18733;DHT22;9495;51.210;2.934;2023-07-24T08:42:52;22.70;99.90
18733;DHT22;9495;51.210;2.934;2023-07-24T08:45:20;22.60;99.90
18733;DHT22;9495;51.210;2.934;2023-07-24T08:47:50;22.70;99.90
18733;DHT22;9495;51.210;2.934;2023-07-24T08:50:19;22.70;99.90
18733;DHT22;9495;51.210;2.934;2023-07-24T08:52:49;22.80;99.90
18733;DHT22;9495;51.210;2.934;2023-07-24T08:55:17;22.80;99.90
18733;DHT22;9495;51.210;2.934;2023-07-24T08:57:48;22.50;99.90
18733;DHT22;9495;51.210;2.934;2023-07-24T09:00:17;22.60;99.90
18733;DHT22;9495;51.210;2.934;2023-07-24T09:02:45;22.50;99.90
18733;DHT22;9495;51.210;2.934;2023-07-24T09:05:14;22.50;99.90
18733;DHT22;9495;51.210;2.934;2023-07-24T09:07:45;22.40;99.90
18733;DHT22;9495;51.210;2.934;2023-07-24T09:10:14;22.60;99.90
18733;DHT22;9495;51.210;2.934;2023-07-24T09:12:42;22.00;99.90
18733;DHT22;9495;51.210;2.934;2023-07-24T09:15:12;22.00;99.90
18733;DHT22;9495;51.210;2.934;2023-07-24T09:17:48;21.60;99.90
18733;DHT22;9495;51.210;2.934;2023-07-24T09:20:18;21.40;99.90
18733;DHT22;9495;51.210;2.934;2023-07-24T09:22:58;21.10;99.90
18733;DHT22;9495;51.210;2.934;2023-07-24T09:25:44;21.00;99.90
18733;DHT22;9495;51.210;2.934;2023-07-24T09:28:16;21.40;99.90
18733;DHT22;9495;51.210;2.934;2023-07-24T09:30:54;21.80;99.90
18733;DHT22;9495;51.210;2.934;2023-07-24T09:33:22;21.90;99.90
18733;DHT22;9495;51.210;2.934;2023-07-24T09:35:58;21.40;99.90
18733;DHT22;9495;51.210;2.934;2023-07-24T09:38:26;21.20;99.90
18733;DHT22;9495;51.210;2.934;2023-07-24T09:40:56;21.80;99.90
18733;DHT22;9495;51.210;2.934;2023-07-24T09:43:25;21.50;99.90
18733;DHT22;9495;51.210;2.934;2023-07-24T09:46:07;21.50;99.90
18733;DHT22;9495;51.210;2.934;2023-07-24T09:48:37;21.60;99.90
18733;DHT22;9495;51.210;2.934;2023-07-24T09:51:28;21.30;99.90
18733;DHT22;9495;51.210;2.934;2023-07-24T09:54:03;21.10;99.90
18733;DHT22;9495;51.210;2.934;2023-07-24T09:56:35;21.30;99.90
18733;DHT22;9495;51.210;2.934;2023-07-24T09:59:18;21.00;99.90
18733;DHT22;9495;51.210;2.934;2023-07-24T10:01:48;21.00;99.90
18733;DHT22;9495;51.210;2.934;2023-07-24T10:04:17;21.10;99.90
18733;DHT22;9495;51.210;2.934;2023-07-24T10:06:46;21.40;99.90
18733;DHT22;9495;51.210;2.934;2023-07-24T10:09:15;21.30;99.90
18733;DHT22;9495;51.210;2.934;2023-07-24T10:11:46;20.90;99.90
18733;DHT22;9495;51.210;2.934;2023-07-24T10:14:15;21.00;99.90
18733;DHT22;9495;51.210;2.934;2023-07-24T10:16:45;21.30;99.90
18733;DHT22;9495;51.210;2.934;2023-07-24T10:19:15;21.60;99.90
18733;DHT22;9495;51.210;2.934;2023-07-24T10:21:47;21.60;99.90
18733;DHT22;9495;51.210;2.934;2023-07-24T10:24:16;21.70;99.90
18733;DHT22;9495;51.210;2.934;2023-07-24T10:27:05;21.30;99.90
18733;DHT22;9495;51.210;2.934;2023-07-24T10:29:37;21.00;99.90
18733;DHT22;9495;51.210;2.934;2023-07-24T10:32:17;21.30;99.90
18733;DHT22;9495;51.210;2.934;2023-07-24T10:34:55;21.30;99.90
18733;DHT22;9495;51.210;2.934;2023-07-24T10:37:32;21.20;99.90
18733;DHT22;9495;51.210;2.934;2023-07-24T10:40:01;21.30;99.90
18733;DHT22;9495;51.210;2.934;2023-07-24T10:42:30;21.10;99.90
18733;DHT22;9495;51.210;2.934;2023-07-24T10:45:05;21.80;99.90
18733;DHT22;9495;51.210;2.934;2023-07-24T10:47:33;21.50;99.90
18733;DHT22;9495;51.210;2.934;2023-07-24T10:50:04;21.50;99.90
18733;DHT22;9495;51.210;2.934;2023-07-24T10:52:33;21.40;99.90
18733;DHT22;9495;51.210;2.934;2023-07-24T10:55:02;21.70;99.90
18733;DHT22;9495;51.210;2.934;2023-07-24T10:57:30;21.70;99.90
18733;DHT22;9495;51.210;2.934;2023-07-24T10:59:59;21.90;99.90
18733;DHT22;9495;51.210;2.934;2023-07-24T11:02:28;21.90;99.90
18733;DHT22;9495;51.210;2.934;2023-07-24T11:04:58;21.70;99.90
18733;DHT22;9495;51.210;2.934;2023-07-24T11:07:33;21.20;99.90
18733;DHT22;9495;51.210;2.934;2023-07-24T11:10:02;20.90;99.90
18733;DHT22;9495;51.210;2.934;2023-07-24T11:12:31;21.10;99.90
18733;DHT22;9495;51.210;2.934;2023-07-24T11:14:59;21.20;99.90
18733;DHT22;9495;51.210;2.934;2023-07-24T11:17:34;21.40;99.90
18733;DHT22;9495;51.210;2.934;2023-07-24T11:20:09;21.60;99.90
18733;DHT22;9495;51.210;2.934;2023-07-24T11:22:41;21.60;99.90
18733;DHT22;9495;51.210;2.934;2023-07-24T11:25:10;22.10;99.90
18733;DHT22;9495;51.210;2.934;2023-07-24T11:27:39;22.40;99.90
18733;DHT22;9495;51.210;2.934;2023-07-24T11:30:10;21.80;99.90
18733;DHT22;9495;51.210;2.934;2023-07-24T11:32:39;21.70;99.90
18733;DHT22;9495;51.210;2.934;2023-07-24T11:35:09;21.90;99.90
18733;DHT22;9495;51.210;2.934;2023-07-24T11:37:37;22.00;99.90
18733;DHT22;9495;51.210;2.934;2023-07-24T11:40:08;22.30;99.90
18733;DHT22;9495;51.210;2.934;2023-07-24T11:42:38;21.80;99.90
18733;DHT22;9495;51.210;2.934;2023-07-24T11:45:08;21.60;99.90
18733;DHT22;9495;51.210;2.934;2023-07-24T11:47:47;21.70;99.90
18733;DHT22;9495;51.210;2.934;2023-07-24T11:50:17;22.10;99.90
18733;DHT22;9495;51.210;2.934;2023-07-24T11:52:47;22.50;99.90
18733;DHT22;9495;51.210;2.934;2023-07-24T11:55:18;22.40;99.90
18733;DHT22;9495;51.210;2.934;2023-07-24T11:58:04;22.20;99.90
18733;DHT22;9495;51.210;2.934;2023-07-24T12:00:33;21.70;99.90
18733;DHT22;9495;51.210;2.934;2023-07-24T12:03:03;21.70;99.90
18733;DHT22;9495;51.210;2.934;2023-07-24T12:05:38;21.90;99.90
18733;DHT22;9495;51.210;2.934;2023-07-24T12:08:07;22.00;99.90
18733;DHT22;9495;51.210;2.934;2023-07-24T12:10:38;21.80;99.90
18733;DHT22;9495;51.210;2.934;2023-07-24T12:13:07;22.10;99.90
18733;DHT22;9495;51.210;2.934;2023-07-24T12:15:36;21.60;99.90
18733;DHT22;9495;51.210;2.934;2023-07-24T12:18:05;21.80;99.90
18733;DHT22;9495;51.210;2.934;2023-07-24T12:20:34;21.70;99.90
18733;DHT22;9495;51.210;2.934;2023-07-24T12:23:03;21.50;99.90
18733;DHT22;9495;51.210;2.934;2023-07-24T12:25:31;21.30;99.90
18733;DHT22;9495;51.210;2.934;2023-07-24T12:28:01;21.10;99.90
18733;DHT22;9495;51.210;2.934;2023-07-24T12:30:30;21.30;99.90
18733;DHT22;9495;51.210;2.934;2023-07-24T12:32:59;21.30;99.90
18733;DHT22;9495;51.210;2.934;2023-07-24T12:35:27;21.40;99.90
18733;DHT22;9495;51.210;2.934;2023-07-24T12:37:56;21.60;99.90
18733;DHT22;9495;51.210;2.934;2023-07-24T12:40:24;21.80;99.90
18733;DHT22;9495;51.210;2.934;2023-07-24T12:42:53;21.80;99.90
18733;DHT22;9495;51.210;2.934;2023-07-24T12:45:23;21.50;99.90
18733;DHT22;9495;51.210;2.934;2023-07-24T12:47:51;21.70;99.90
18733;DHT22;9495;51.210;2.934;2023-07-24T12:50:22;21.60;99.90
18733;DHT22;9495;51.210;2.934;2023-07-24T12:52:51;21.80;99.90
18733;DHT22;9495;51.210;2.934;2023-07-24T12:55:20;22.00;99.90
18733;DHT22;9495;51.210;2.934;2023-07-24T12:57:49;21.80;99.90
18733;DHT22;9495;51.210;2.934;2023-07-24T13:00:17;21.50;99.90
18733;DHT22;9495;51.210;2.934;2023-07-24T13:02:47;21.70;99.90
18733;DHT22;9495;51.210;2.934;2023-07-24T13:05:16;21.60;99.90
18733;DHT22;9495;51.210;2.934;2023-07-24T13:07:45;21.30;99.90
18733;DHT22;9495;51.210;2.934;2023-07-24T13:10:13;21.00;99.90
18733;DHT22;9495;51.210;2.934;2023-07-24T13:12:42;21.20;99.90
18733;DHT22;9495;51.210;2.934;2023-07-24T13:15:11;21.50;99.90
18733;DHT22;9495;51.210;2.934;2023-07-24T13:17:40;21.50;99.90
18733;DHT22;9495;51.210;2.934;2023-07-24T13:20:11;21.30;99.90
18733;DHT22;9495;51.210;2.934;2023-07-24T13:22:40;21.50;99.90
18733;DHT22;9495;51.210;2.934;2023-07-24T13:25:10;21.90;99.90
18733;DHT22;9495;51.210;2.934;2023-07-24T13:27:38;22.20;99.90
18733;DHT22;9495;51.210;2.934;2023-07-24T13:30:07;22.30;99.90
18733;DHT22;9495;51.210;2.934;2023-07-24T13:32:36;22.00;99.90
18733;DHT22;9495;51.210;2.934;2023-07-24T13:35:05;22.00;99.90
18733;DHT22;9495;51.210;2.934;2023-07-24T13:37:35;21.60;99.90
18733;DHT22;9495;51.210;2.934;2023-07-24T13:40:04;21.20;99.90
18733;DHT22;9495;51.210;2.934;2023-07-24T13:42:33;20.70;99.90
18733;DHT22;9495;51.210;2.934;2023-07-24T13:45:02;20.70;99.90
18733;DHT22;9495;51.210;2.934;2023-07-24T13:47:30;20.90;99.90
18733;DHT22;9495;51.210;2.934;2023-07-24T13:49:58;21.10;99.90
18733;DHT22;9495;51.210;2.934;2023-07-24T13:52:30;20.60;99.90
18733;DHT22;9495;51.210;2.934;2023-07-24T13:55:00;20.40;99.90
18733;DHT22;9495;51.210;2.934;2023-07-24T13:57:28;21.20;99.90
18733;DHT22;9495;51.210;2.934;2023-07-24T13:59:57;20.80;99.90
18733;DHT22;9495;51.210;2.934;2023-07-24T14:02:25;21.20;99.90
18733;DHT22;9495;51.210;2.934;2023-07-24T14:04:54;21.20;99.90
18733;DHT22;9495;51.210;2.934;2023-07-24T14:07:22;21.50;99.90
18733;DHT22;9495;51.210;2.934;2023-07-24T14:09:51;21.50;99.90
18733;DHT22;9495;51.210;2.934;2023-07-24T14:12:21;21.30;99.90
18733;DHT22;9495;51.210;2.934;2023-07-24T14:14:49;21.40;99.90
18733;DHT22;9495;51.210;2.934;2023-07-24T14:17:18;21.70;99.90
18733;DHT22;9495;51.210;2.934;2023-07-24T14:19:47;21.10;99.90
18733;DHT22;9495;51.210;2.934;2023-07-24T14:22:15;21.30;99.90
18733;DHT22;9495;51.210;2.934;2023-07-24T14:24:44;21.10;99.90
18733;DHT22;9495;51.210;2.934;2023-07-24T14:27:14;21.10;99.90
18733;DHT22;9495;51.210;2.934;2023-07-24T14:29:43;20.70;99.90
18733;DHT22;9495;51.210;2.934;2023-07-24T14:32:12;20.70;99.90
18733;DHT22;9495;51.210;2.934;2023-07-24T14:34:42;20.90;99.90
18733;DHT22;9495;51.210;2.934;2023-07-24T14:37:11;21.10;99.90
18733;DHT22;9495;51.210;2.934;2023-07-24T14:39:39;21.30;99.90
18733;DHT22;9495;51.210;2.934;2023-07-24T14:42:07;21.50;99.90
18733;DHT22;9495;51.210;2.934;2023-07-24T14:44:36;20.80;99.90
18733;DHT22;9495;51.210;2.934;2023-07-24T14:47:06;20.50;99.90
18733;DHT22;9495;51.210;2.934;2023-07-24T14:49:35;21.00;99.90
18733;DHT22;9495;51.210;2.934;2023-07-24T14:52:04;20.70;99.90
18733;DHT22;9495;51.210;2.934;2023-07-24T14:54:33;20.90;99.90
18733;DHT22;9495;51.210;2.934;2023-07-24T14:57:05;21.30;99.90
18733;DHT22;9495;51.210;2.934;2023-07-24T14:59:50;20.90;99.90
18733;DHT22;9495;51.210;2.934;2023-07-24T15:02:20;21.00;99.90
18733;DHT22;9495;51.210;2.934;2023-07-24T15:04:49;21.30;99.90
18733;DHT22;9495;51.210;2.934;2023-07-24T15:07:17;21.30;99.90
18733;DHT22;9495;51.210;2.934;2023-07-24T15:09:46;21.50;99.90
18733;DHT22;9495;51.210;2.934;2023-07-24T15:12:14;21.70;99.90
18733;DHT22;9495;51.210;2.934;2023-07-24T15:14:43;21.40;99.90
18733;DHT22;9495;51.210;2.934;2023-07-24T15:17:11;20.90;99.90
18733;DHT22;9495;51.210;2.934;2023-07-24T15:19:43;20.40;99.90
18733;DHT22;9495;51.210;2.934;2023-07-24T15:22:11;20.30;99.90
18733;DHT22;9495;51.210;2.934;2023-07-24T15:24:40;20.30;99.90
18733;DHT22;9495;51.210;2.934;2023-07-24T15:27:09;20.30;99.90
18733;DHT22;9495;51.210;2.934;2023-07-24T15:29:37;20.80;99.90
18733;DHT22;9495;51.210;2.934;2023-07-24T15:32:07;21.00;99.90
18733;DHT22;9495;51.210;2.934;2023-07-24T15:34:36;21.70;99.90
18733;DHT22;9495;51.210;2.934;2023-07-24T15:37:07;22.00;99.90
18733;DHT22;9495;51.210;2.934;2023-07-24T15:39:37;21.90;99.90
18733;DHT22;9495;51.210;2.934;2023-07-24T15:42:06;22.00;99.90
18733;DHT22;9495;51.210;2.934;2023-07-24T15:44:35;21.00;99.90
18733;DHT22;9495;51.210;2.934;2023-07-24T15:47:04;20.70;99.90
18733;DHT22;9495;51.210;2.934;2023-07-24T15:49:32;21.00;99.90
18733;DHT22;9495;51.210;2.934;2023-07-24T15:52:01;21.20;99.90
18733;DHT22;9495;51.210;2.934;2023-07-24T15:54:30;21.00;99.90
18733;DHT22;9495;51.210;2.934;2023-07-24T15:56:59;21.20;99.90
18733;DHT22;9495;51.210;2.934;2023-07-24T15:59:27;21.30;99.90